^^
Datos históricos de la estación: Murcia-Puente Tocinos
Diario Informe para Septiembre 15, 2019 Unidades:  Ingés    Métrico   Ambas
Diario Semanal Mensual Anual
  Máxima: Mínima: Promedio:
Temperatura: 90.1 °F 58.6 °F 70.5 °F
Punto de rocio: 60.4 °F 47.8 °F 51.6 °F
Humedad: 81% 25% 54%
Velocidad viento: 16.8mph 0mph 5.8mph
Racha viento: 30mph - -
Viento- - SE
Presión: 29.9 in 29.7 in -
Precipitación: 0 in    
 
 
Tabla de datos para Septiembre 15, 2019
Hora Temperatura Punto de rocio Presión Viento Velocidad viento Racha viento Humedad Intensidad lluvia(por hora) Nubes
00:04 64.9 °F 50.2 °F 29.9 in SSE 2 mph 5 mph 58.7% 0 in
00:09 64.9 °F 50.4 °F 29.9 in SSE 1.9 mph 5 mph 59% 0 in
00:14 64.8 °F 50.4 °F 29.9 in SSE 1.8 mph 2.3 mph 59.4% 0 in
00:19 64.8 °F 50.4 °F 29.9 in SSE 1.1 mph 2 mph 59.8% 0 in
00:24 64.6 °F 50.4 °F 29.9 in Calm   1.4 mph 60% 0 in
00:29 64.6 °F 50.4 °F 29.9 in Calm   1 mph 60% 0 in
00:34 64.6 °F 50.4 °F 29.9 in Calm   3.6 mph 60% 0 in
00:39 64.4 °F 50.2 °F 29.9 in SSE 0.6 mph 4 mph 59.9% 0 in
00:44 64.2 °F 50 °F 29.9 in Sur 1.4 mph 3.1 mph 60.1% 0 in
00:49 64 °F 50.2 °F 29.9 in Sur 1.4 mph 4.6 mph 60.8% 0 in
00:54 63.9 °F 50.2 °F 29.9 in ESE 1.4 mph 5 mph 61% 0 in
00:59 63.9 °F 50.2 °F 29.9 in SE 1.7 mph 4 mph 61% 0 in
01:04 63.9 °F 50 °F 29.9 in SE 2 mph 4.7 mph 60.6% 0 in
01:09 63.9 °F 48.9 °F 29.9 in SE 2.3 mph 5 mph 58.2% 0 in
01:14 63.7 °F 48.2 °F 29.9 in SSE 2.9 mph 5 mph 57% 0 in
01:19 63.7 °F 48.6 °F 29.9 in Sur 2.7 mph 5 mph 57.8% 0 in
01:24 63.5 °F 48.4 °F 29.9 in Sur 2.4 mph 4 mph 57.8% 0 in
01:28 63.5 °F 49.5 °F 29.9 in Sur 2.2 mph 3 mph 60.3% 0 in
01:37 63.3 °F 50.5 °F 29.9 in Sur 1.4 mph 1.2 mph 63% 0 in
01:44 63.1 °F 50.7 °F 29.9 in Calm   1.4 mph 64% 0 in
01:49 63 °F 50.7 °F 29.9 in Sur 1.3 mph 2 mph 64.5% 0 in
01:50 63 °F 51.1 °F 29.9 in Sur 1.4 mph 1.2 mph 65% 0 in
01:56 62.8 °F 50.7 °F 29.9 in Sur 1.4 mph 1.2 mph 65% 0 in
02:24 61.7 °F 50.4 °F 29.9 in Calm   2.3 mph 66% 0 in
02:29 61.5 °F 50.2 °F 29.9 in Calm   2.4 mph 66% 0 in
02:34 61.5 °F 50.2 °F 29.9 in Calm   2.4 mph 66% 0 in
02:39 61.5 °F 49.6 °F 29.9 in North 0.5 mph 2.9 mph 65.1% 0 in
02:44 61.3 °F 49.5 °F 29.9 in North 1.4 mph 3 mph 65% 0 in
02:49 61.3 °F 49.8 °F 29.9 in North 1.4 mph 3 mph 65.8% 0 in
02:54 61.3 °F 49.6 °F 29.9 in North 1.4 mph 3 mph 65.2% 0 in
02:59 61.3 °F 49.5 °F 29.9 in North 1.4 mph 2.3 mph 65% 0 in
03:04 61.3 °F 49.3 °F 29.9 in ENE 1.4 mph 4.6 mph 64.4% 0 in
03:09 61.3 °F 48.9 °F 29.9 in Este 1.6 mph 5 mph 63.7% 0 in
03:14 61.3 °F 48.7 °F 29.9 in Este 2 mph 5 mph 63.3% 0 in
03:19 61.2 °F 48.6 °F 29.9 in Este 1.8 mph 2.4 mph 63% 0 in
03:24 61.2 °F 48.6 °F 29.9 in Este 1.4 mph 2.3 mph 63.1% 0 in
03:29 61.2 °F 48.9 °F 29.9 in NNO 0.9 mph 3.6 mph 64% 0 in
03:34 60.8 °F 48.9 °F 29.9 in Calm   4 mph 64.6% 0 in
03:39 60.4 °F 48.9 °F 29.9 in NNO 0.7 mph 4 mph 65.8% 0 in
03:44 60.3 °F 49.1 °F 29.9 in NO 2 mph 4.6 mph 66.4% 0 in
03:49 60.3 °F 49.3 °F 29.9 in NO 1.9 mph 5 mph 67% 0 in
03:54 60.1 °F 49.1 °F 29.9 in NO 1.8 mph 3 mph 67% 0 in
03:59 60.1 °F 49.1 °F 29.9 in NO 1.1 mph   67% 0 in
04:04 60.1 °F 49.1 °F 29.9 in Calm     67% 0 in
04:09 60.3 °F 49.3 °F 29.9 in Calm     67% 0 in
04:14 60.3 °F 49.5 °F 29.9 in Calm     67.2% 0 in
04:19 60.4 °F 49.1 °F 29.9 in Calm   4.7 mph 66.2% 0 in
04:24 60.6 °F 48.7 °F 29.9 in Calm   5.2 mph 65% 0 in
04:29 60.6 °F 48.7 °F 29.9 in SE 0.8 mph 5 mph 65% 0 in
04:34 60.4 °F 48.6 °F 29.9 in SE 2.4 mph 5 mph 65% 0 in
04:39 60.3 °F 48.9 °F 29.9 in SE 2.1 mph 4.6 mph 65.8% 0 in
04:44 60.1 °F 48.9 °F 29.9 in SE 1.4 mph 5 mph 66.9% 0 in
04:49 59.7 °F 48.7 °F 29.9 in SE 1.6 mph 5 mph 67% 0 in
04:54 59.7 °F 48.7 °F 29.9 in SE 1.8 mph 4.3 mph 67.2% 0 in
04:59 59.7 °F 49.1 °F 29.9 in SO 1.6 mph 5 mph 68% 0 in
05:04 59.7 °F 48.7 °F 29.9 in SO 1.4 mph 3 mph 67% 0 in
05:09 59.7 °F 48.7 °F 29.9 in SO 0.9 mph 2.4 mph 67% 0 in
05:14 59.7 °F 48.9 °F 29.9 in Calm   3.5 mph 67.7% 0 in
05:19 59.7 °F 49.3 °F 29.9 in SO 0.7 mph 3.5 mph 68% 0 in
05:24 60.1 °F 49.1 °F 29.9 in SSO 1.8 mph 5.8 mph 67% 0 in
05:29 60.1 °F 48.9 °F 29.9 in SSO 2.4 mph 6.9 mph 66.6% 0 in
05:34 60.1 °F 48.9 °F 29.9 in SO 3.6 mph 7 mph 66.5% 0 in
05:39 60.1 °F 48.7 °F 29.9 in SSO 3.4 mph 6 mph 66% 0 in
05:44 60.1 °F 48.7 °F 29.9 in SSO 3.1 mph 7.4 mph 66% 0 in
05:49 60.1 °F 48.6 °F 29.9 in SSO 3.4 mph 7 mph 66% 0 in
05:54 59.9 °F 48.7 °F 29.9 in SO 4 mph 7 mph 66.4% 0 in
05:59 59.9 °F 48.9 °F 29.9 in SSO 3.6 mph 7.4 mph 67% 0 in
06:04 59.7 °F 48.7 °F 29.9 in SO 3.1 mph 7 mph 67% 0 in
06:09 59.7 °F 48.7 °F 29.9 in SO 3.4 mph 7.4 mph 67% 0 in
06:14 59.7 °F 48.7 °F 29.9 in SO 4 mph 9.2 mph 67.2% 0 in
06:19 59.7 °F 49.1 °F 29.9 in SO 4.5 mph 9 mph 68% 0 in
06:24 59.5 °F 49.1 °F 29.9 in SO 5.4 mph 8 mph 68% 0 in
06:29 59.5 °F 48.9 °F 29.9 in SO 4.9 mph 9.7 mph 68% 0 in
06:34 59.5 °F 48.9 °F 29.9 in SO 4 mph 10 mph 68% 0 in
06:39 59.5 °F 48.6 °F 29.9 in SSO 4 mph 7 mph 67% 0 in
06:44 59.5 °F 48.6 °F 29.9 in SSE 4 mph 8.1 mph 67% 0 in
06:49 59.4 °F 48.4 °F 29.9 in SSE 4.1 mph 8 mph 67% 0 in
06:54 59 °F 48.4 °F 29.8 in Sur 4.3 mph 8.1 mph 67.8% 0 in
06:59 58.6 °F 48.2 °F 29.8 in SSE 4.7 mph 8.1 mph 68% 0 in
07:04 58.6 °F 48 °F 29.9 in Sur 5.2 mph 8.1 mph 68% 0 in
07:09 58.6 °F 48 °F 29.9 in SSO 4.8 mph 8 mph 67.9% 0 in
07:14 58.6 °F 47.8 °F 29.9 in SSO 4 mph 7 mph 67% 0 in
07:19 58.8 °F 47.8 °F 29.9 in SSO 4 mph 7 mph 67% 0 in
07:24 58.8 °F 48 °F 29.9 in SSO 4 mph 6.2 mph 67% 0 in
07:29 59 °F 48 °F 29.9 in Sur 4 mph 6.2 mph 67% 0 in
07:34 59.2 °F 48.2 °F 29.9 in SSO 4 mph 6 mph 67% 0 in
07:39 59.2 °F 48.2 °F 29.9 in SSO 3.7 mph 5.8 mph 67% 0 in
07:44 59.4 °F 48.4 °F 29.9 in Sur 3.1 mph 6 mph 67% 0 in
07:49 59.5 °F 48.6 °F 29.9 in SO 2.9 mph 5 mph 67% 0 in
07:54 59.7 °F 48.6 °F 29.9 in OSO 2.4 mph 5.8 mph 66.5% 0 in
07:59 60.1 °F 48.7 °F 29.9 in OSO 2.6 mph 6 mph 66% 0 in
08:04 60.4 °F 48.9 °F 29.9 in OSO 2.9 mph 5.8 mph 65.8% 0 in
08:09 60.6 °F 48.7 °F 29.8 in SO 2.9 mph 6 mph 65% 0 in
08:14 61 °F 48.9 °F 29.8 in SSO 2.9 mph 6 mph 64.8% 0 in
08:19 61.2 °F 48.9 °F 29.9 in Sur 2.7 mph 5.2 mph 64% 0 in
08:24 61.2 °F 48.6 °F 29.9 in Sur 2.4 mph 5 mph 63.1% 0 in
08:29 61.3 °F 48.7 °F 29.9 in SO 2.2 mph 4.7 mph 63% 0 in
08:34 61.5 °F 48.6 °F 29.9 in Sur 2 mph 7.4 mph 62.3% 0 in
08:39 61.5 °F 48.4 °F 29.8 in SSE 2.4 mph 7 mph 62% 0 in
08:44 61.5 °F 48.4 °F 29.8 in SSE 3.1 mph 7 mph 62% 0 in
08:49 61.9 °F 48.7 °F 29.8 in Sur 2.9 mph 5 mph 62% 0 in
08:54 62.2 °F 48.7 °F 29.8 in Sur 2.4 mph 5 mph 61.2% 0 in
08:59 62.8 °F 49.1 °F 29.8 in Sur 2.2 mph 5.9 mph 61% 0 in
09:04 63.1 °F 49.3 °F 29.8 in SE 2 mph 6 mph 60.3% 0 in
09:09 63.7 °F 49.3 °F 29.8 in SO 2.4 mph 6.4 mph 59.4% 0 in
09:14 63.9 °F 49.3 °F 29.8 in SO 3.1 mph 7 mph 59% 0 in
09:19 64 °F 48.9 °F 29.8 in SO 3 mph 7.4 mph 57.9% 0 in
09:24 64.2 °F 48.2 °F 29.8 in SO 2.9 mph 8.1 mph 56% 0 in
09:29 64.4 °F 48.4 °F 29.8 in SO 3.7 mph 8.5 mph 55.9% 0 in
09:34 64.8 °F 48.2 °F 29.8 in SO 5.2 mph 9.2 mph 55.2% 0 in
09:39 64.9 °F 48.4 °F 29.8 in SSO 5.3 mph 9 mph 55% 0 in
09:44 65.1 °F 48.6 °F 29.8 in SSO 5.4 mph 8 mph 54.9% 0 in
09:49 65.7 °F 48.6 °F 29.8 in SO 5 mph 7 mph 54% 0 in
09:54 66 °F 48.7 °F 29.8 in SSO 4.3 mph 7 mph 53.5% 0 in
09:59 66.4 °F 48.7 °F 29.8 in OSO 3.8 mph 6 mph 52.9% 0 in
10:04 66.7 °F 48.9 °F 29.8 in SO 3.1 mph 6.2 mph 52.8% 0 in
10:09 67.1 °F 48.6 °F 29.8 in OSO 3.4 mph 6.9 mph 51.4% 0 in
10:14 67.3 °F 48.6 °F 29.8 in Oeste 4 mph 7 mph 51% 0 in
10:19 67.6 °F 48.2 °F 29.8 in SO 4 mph 8.1 mph 50% 0 in
10:24 67.6 °F 48.4 °F 29.8 in OSO 4 mph 8.5 mph 50% 0 in
10:29 67.8 °F 48.4 °F 29.8 in SSO 4.1 mph 9 mph 49.7% 0 in
10:34 68.4 °F 48.6 °F 29.8 in Sur 4.3 mph 8.1 mph 49% 0 in
10:39 68.9 °F 48.7 °F 29.8 in Sur 4.5 mph 8 mph 48.8% 0 in
10:44 69.3 °F 48.6 °F 29.8 in OSO 4.7 mph 10 mph 47.8% 0 in
10:49 69.4 °F 48.4 °F 29.8 in SO 4.9 mph 10.4 mph 47% 0 in
10:54 70 °F 48.6 °F 29.8 in SO 5.2 mph 10 mph 46.7% 0 in
10:59 70.3 °F 48.4 °F 29.8 in OSO 5 mph 9.2 mph 45.7% 0 in
11:04 70.5 °F 48.2 °F 29.8 in SO 4.7 mph 9 mph 45% 0 in
11:09 70.9 °F 48.4 °F 29.8 in OSO 4.7 mph 8 mph 45% 0 in
11:14 71.2 °F 48.6 °F 29.8 in OSO 4.7 mph 9.2 mph 44.8% 0 in
11:19 71.8 °F 48.7 °F 29.8 in SSO 4.8 mph 9 mph 44.2% 0 in
11:24 72.1 °F 48.9 °F 29.8 in SO 5.2 mph 8.1 mph 43.9% 0 in
11:29 72.7 °F 49.1 °F 29.8 in OSO 4.9 mph 9.2 mph 43.3% 0 in
11:34 73.2 °F 49.3 °F 29.8 in OSO 4.3 mph 9 mph 43% 0 in
11:39 73.8 °F 49.3 °F 29.8 in Oeste 4.3 mph 8 mph 42.3% 0 in
11:44 74.1 °F 49.5 °F 29.8 in SO 4.3 mph 7 mph 41.8% 0 in
11:49 74.7 °F 49.5 °F 29.8 in SO 4.1 mph 7.6 mph 41% 0 in
11:54 75 °F 49.3 °F 29.8 in Sur 3.6 mph 8.1 mph 40.2% 0 in
11:59 75.2 °F 49.3 °F 29.8 in SSE 3.8 mph 8 mph 40% 0 in
12:04 75.7 °F 49.6 °F 29.8 in SO 4 mph 6.2 mph 39.8% 0 in
12:09 76.3 °F 49.6 °F 29.8 in OSO 3.7 mph 6 mph 39.2% 0 in
12:14 76.8 °F 49.5 °F 29.8 in SSO 3.1 mph 6.9 mph 38.3% 0 in
12:19 77.4 °F 49.8 °F 29.8 in SSE 3.3 mph 7 mph 38% 0 in
12:24 78.1 °F 49.8 °F 29.8 in SE 3.6 mph 8.1 mph 37.3% 0 in
12:29 78.6 °F 50.2 °F 29.8 in SE 3.4 mph 8.1 mph 37% 0 in
12:34 79.2 °F 50.2 °F 29.8 in SO 3.1 mph 5.2 mph 36.3% 0 in
12:39 79.9 °F 50 °F 29.8 in SO 3 mph 8.1 mph 35.3% 0 in
12:44 80.1 °F 50 °F 29.8 in OSO 2.9 mph 8 mph 35% 0 in
12:49 80.2 °F 49.8 °F 29.8 in SO 3 mph 6.9 mph 34.6% 0 in
12:54 80.4 °F 49.8 °F 29.8 in SO 3.1 mph 7 mph 34.4% 0 in
12:59 80.8 °F 49.8 °F 29.8 in ONO 3 mph 6 mph 34% 0 in
13:04 81.1 °F 50 °F 29.8 in ONO 2.9 mph 5 mph 34% 0 in
13:09 81.1 °F 50.2 °F 29.8 in Oeste 2.7 mph 5.9 mph 34% 0 in
13:14 81.7 °F 50.2 °F 29.8 in Sur 2.4 mph 8.1 mph 33.6% 0 in
13:19 82 °F 50.2 °F 29.8 in SO 2.9 mph 8 mph 33% 0 in
13:24 82.4 °F 50.2 °F 29.8 in SO 4 mph 7 mph 32.7% 0 in
13:29 82.8 °F 50 °F 29.8 in SO 3.9 mph 7.4 mph 32% 0 in
13:34 83.1 °F 50.4 °F 29.8 in SE 3.6 mph 7 mph 32% 0 in
13:39 83.7 °F 50.4 °F 29.8 in SE 3.4 mph 7 mph 31.6% 0 in
13:44 84.2 °F 50.2 °F 29.8 in OSO 3.1 mph 6.4 mph 30.8% 0 in
13:49 84.7 °F 50 °F 29.8 in SSE 3.3 mph 6 mph 30% 0 in
13:54 85.1 °F 50.2 °F 29.7 in Este 3.6 mph 6 mph 30% 0 in
13:59 85.5 °F 50.5 °F 29.7 in SE 3.3 mph 6.9 mph 30% 0 in
14:04 85.8 °F 49.8 °F 29.7 in SSO 2.9 mph 7 mph 29% 0 in
14:09 86.2 °F 50 °F 29.7 in Sur 3.3 mph 7 mph 28.9% 0 in
14:14 86.4 °F 49.5 °F 29.7 in Sur 4 mph 6 mph 28% 0 in
14:19 86.4 °F 49.5 °F 29.7 in ESE 3.7 mph 6 mph 28.1% 0 in
14:24 86.5 °F 49.6 °F 29.7 in Sur 3.1 mph 6.2 mph 28.1% 0 in
14:29 86.7 °F 48.9 °F 29.7 in SO 3.1 mph 6 mph 27.2% 0 in
14:34 86.7 °F 49.1 °F 29.7 in Sur 3.1 mph 6.2 mph 27.3% 0 in
14:39 87.3 °F 48.9 °F 29.7 in Sur 3.3 mph 6 mph 26.9% 0 in
14:44 87.4 °F 48.7 °F 29.7 in Sur 3.6 mph 6.9 mph 26.4% 0 in
14:49 87.8 °F 48.7 °F 29.7 in NNE 3.4 mph 7 mph 26% 0 in
14:54 88.2 °F 48 °F 29.7 in SSO 2.9 mph 6 mph 25.1% 0 in
14:59 88.7 °F 48.4 °F 29.7 in SSO 3 mph 8.5 mph 25% 0 in
15:04 89.1 °F 49.3 °F 29.7 in SO 3.1 mph 9 mph 25.6% 0 in
15:09 89.1 °F 49.8 °F 29.7 in SSE 3.4 mph 8 mph 26% 0 in
15:14 89.6 °F 50 °F 29.7 in Este 4 mph 6 mph 25.9% 0 in
15:19 90.1 °F 50.4 °F 29.7 in SE 3.4 mph 6.9 mph 25.8% 0 in
15:24 90.1 °F 51.3 °F 29.7 in SE 2.4 mph 10.4 mph 26.6% 0 in
15:29 90 °F 51.6 °F 29.7 in Este 3.4 mph 10.4 mph 27% 0 in
15:34 89.8 °F 51.1 °F 29.7 in ENE 5.2 mph 10.4 mph 26.7% 0 in
15:39 89.4 °F 50.2 °F 29.7 in North 5.3 mph 10 mph 26.1% 0 in
15:44 89.6 °F 50.2 °F 29.7 in NNE 5.4 mph 11.5 mph 26% 0 in
15:49 89.6 °F 50.2 °F 29.7 in NE 5.7 mph 12.7 mph 26% 0 in
15:54 89.6 °F 52.3 °F 29.7 in NE 6.2 mph 17.3 mph 28.3% 0 in
15:59 88.7 °F 55.4 °F 29.7 in NE 8.1 mph 20.7 mph 32.4% 0 in
16:04 87.6 °F 55.4 °F 29.7 in NE 10.7 mph 21.5 mph 33.6% 0 in
16:09 86.9 °F 55.4 °F 29.7 in NNE 11.6 mph 22 mph 34.4% 0 in
16:14 85.8 °F 55.6 °F 29.7 in NE 13.5 mph 22.3 mph 35.7% 0 in
16:19 85.3 °F 55.4 °F 29.7 in NE 13.9 mph 25.3 mph 36.2% 0 in
16:24 84.9 °F 55 °F 29.7 in NE 14.7 mph 25 mph 36% 0 in
16:29 84.7 °F 55.2 °F 29.7 in NE 15 mph 24.2 mph 36.5% 0 in
16:34 84.6 °F 55 °F 29.7 in NE 15.6 mph 25.3 mph 36.6% 0 in
16:39 83.8 °F 54.9 °F 29.7 in NE 15.3 mph 25 mph 37% 0 in
16:44 83.8 °F 54.7 °F 29.7 in NE 14.7 mph 23 mph 36.9% 0 in
16:49 83.7 °F 54.5 °F 29.7 in NNE 14.8 mph 25.3 mph 37% 0 in
16:54 83.5 °F 54.5 °F 29.7 in NE 15.2 mph 25 mph 37% 0 in
16:59 83.3 °F 54.7 °F 29.7 in NNE 14.9 mph 26.3 mph 37.5% 0 in
17:04 82.6 °F 54.1 °F 29.7 in NE 14.5 mph 26.5 mph 37.5% 0 in
17:09 82.6 °F 54.3 °F 29.7 in NE 15 mph 26 mph 38% 0 in
17:14 82.2 °F 54.3 °F 29.7 in NNE 15.9 mph 26.8 mph 38.2% 0 in
17:19 81.9 °F 54.5 °F 29.7 in NNE 15.7 mph 29.9 mph 38.9% 0 in
17:24 81.1 °F 54.7 °F 29.7 in NE 15.2 mph 30 mph 40.1% 0 in
17:29 81 °F 55 °F 29.7 in NNE 15.7 mph 30 mph 41.1% 0 in
17:34 81 °F 55.2 °F 29.7 in NE 16.8 mph 26.5 mph 41.3% 0 in
17:39 80.8 °F 55.6 °F 29.7 in NNE 16.4 mph 26 mph 42% 0 in
17:44 80.6 °F 55.8 °F 29.7 in NE 15.6 mph 25.3 mph 42.6% 0 in
17:49 80.2 °F 55.6 °F 29.7 in NE 15.2 mph 25 mph 42.7% 0 in
17:54 79.9 °F 55 °F 29.7 in NE 14.5 mph 25 mph 42.6% 0 in
17:59 79.5 °F 55 °F 29.7 in NE 15 mph 27.6 mph 43% 0 in
18:04 79.5 °F 55 °F 29.7 in NNE 15.6 mph 28 mph 43.1% 0 in
18:09 79.9 °F 55 °F 29.7 in NE 15.5 mph 25 mph 42.7% 0 in
18:14 79.9 °F 54.1 °F 29.7 in NE 15.2 mph 24.6 mph 41.1% 0 in
18:19 79.9 °F 54 °F 29.7 in NE 15 mph 25.6 mph 40.9% 0 in
18:24 79.3 °F 53.4 °F 29.7 in NE 14.7 mph 26 mph 40.6% 0 in
18:29 79.3 °F 52.7 °F 29.7 in NE 14.5 mph 24 mph 39.6% 0 in
18:34 79.2 °F 52.2 °F 29.7 in NE 14 mph 24.6 mph 39% 0 in
18:39 78.6 °F 51.6 °F 29.7 in NE 14.5 mph 25 mph 39% 0 in
18:44 78.4 °F 52.2 °F 29.7 in NE 15.6 mph 25 mph 40.2% 0 in
18:49 78.3 °F 52.7 °F 29.7 in NE 15 mph 22 mph 41% 0 in
18:54 78.3 °F 52.3 °F 29.7 in NE 14 mph 22 mph 40.8% 0 in
18:59 77.9 °F 52.5 °F 29.7 in NE 13.4 mph 23.5 mph 41.3% 0 in
19:04 77.4 °F 52.5 °F 29.8 in NE 12.5 mph 23 mph 42% 0 in
19:09 77 °F 52.5 °F 29.8 in NE 13 mph 22.3 mph 42.6% 0 in
19:14 76.6 °F 52.7 °F 29.8 in NE 14 mph 22 mph 43.3% 0 in
19:19 76.3 °F 52.7 °F 29.8 in NE 14 mph 23 mph 43.9% 0 in
19:24 75.9 °F 52.7 °F 29.8 in NE 14 mph 23 mph 44.4% 0 in
19:29 75.6 °F 53.6 °F 29.8 in NE 13.5 mph 22 mph 46.5% 0 in
19:34 75.6 °F 54.3 °F 29.8 in NE 12.5 mph 20.4 mph 47.8% 0 in
19:39 75 °F 54 °F 29.8 in NE 12.5 mph 21.9 mph 48% 0 in
19:44 74.7 °F 54.5 °F 29.8 in NE 12.5 mph 22 mph 49.5% 0 in
19:49 74.3 °F 54.7 °F 29.8 in NE 12.4 mph 21 mph 50.5% 0 in
19:54 73.9 °F 54.7 °F 29.8 in NE 12.3 mph 21.3 mph 51.3% 0 in
19:59 73.4 °F 54.7 °F 29.8 in NE 12.8 mph 21 mph 52% 0 in
20:04 73 °F 55 °F 29.8 in NE 13.5 mph 19.7 mph 53.2% 0 in
20:09 72.9 °F 55.8 °F 29.8 in NE 12.7 mph 20 mph 55% 0 in
20:14 72.3 °F 55.8 °F 29.8 in NE 11.2 mph 19.6 mph 56% 0 in
20:19 72 °F 55.4 °F 29.8 in NE 11.2 mph 20 mph 56% 0 in
20:24 71.4 °F 55 °F 29.8 in NNE 11.2 mph 18.4 mph 56.1% 0 in
20:29 71.1 °F 55 °F 29.8 in NE 10.7 mph 18.4 mph 56.7% 0 in
20:34 70.9 °F 55 °F 29.8 in NE 9.7 mph 18 mph 57.3% 0 in
20:39 70.5 °F 55.2 °F 29.8 in NE 9.9 mph 17.3 mph 58.5% 0 in
20:44 70.3 °F 55.4 °F 29.8 in NE 10.2 mph 18.4 mph 59.4% 0 in
20:49 70 °F 55.6 °F 29.8 in NE 10.6 mph 18 mph 60% 0 in
20:54 70 °F 55.8 °F 29.8 in NE 11.2 mph 17 mph 60.8% 0 in
20:59 69.8 °F 56.1 °F 29.8 in NE 10.4 mph 15.9 mph 61.9% 0 in
21:04 69.4 °F 56.1 °F 29.8 in NE 9.2 mph 16.1 mph 62.4% 0 in
21:09 69.3 °F 56.3 °F 29.8 in NE 9.7 mph 17.3 mph 63.1% 0 in
21:14 69.1 °F 56.5 °F 29.8 in NE 10.7 mph 17.3 mph 64.2% 0 in
21:19 68.9 °F 56.7 °F 29.8 in NE 10.4 mph 17 mph 65.3% 0 in
21:24 68.7 °F 57 °F 29.8 in NE 10 mph 15 mph 66.4% 0 in
21:29 68.5 °F 57.9 °F 29.8 in NE 9.3 mph 14 mph 68.9% 0 in
21:34 68.4 °F 58.5 °F 29.8 in NE 8.1 mph 14 mph 70.7% 0 in
21:39 68.2 °F 58.8 °F 29.8 in NE 8.5 mph 15 mph 72.2% 0 in
21:44 67.8 °F 59 °F 29.8 in NE 9.2 mph 15 mph 73.3% 0 in
21:49 67.6 °F 59.2 °F 29.8 in NE 8.8 mph 16.1 mph 74.3% 0 in
21:54 67.5 °F 59.5 °F 29.8 in NE 8.1 mph 16 mph 75.4% 0 in
21:59 67.3 °F 59.5 °F 29.8 in NE 8.8 mph 19 mph 76.4% 0 in
22:04 67.1 °F 59.5 °F 29.8 in NE 9.7 mph 19 mph 77% 0 in
22:09 66.9 °F 59.7 °F 29.8 in NE 9 mph 16.1 mph 77.5% 0 in
22:14 66.7 °F 59.9 °F 29.8 in NE 7.6 mph 16.3 mph 78.3% 0 in
22:19 66.7 °F 59.9 °F 29.9 in NE 8 mph 16.1 mph 79% 0 in
22:24 66.6 °F 59.7 °F 29.9 in NE 8.7 mph 14 mph 79% 0 in
22:29 66.6 °F 59.7 °F 29.9 in NE 7.9 mph 13 mph 79% 0 in
22:34 66.6 °F 59.7 °F 29.9 in NE 6.4 mph 12 mph 78.5% 0 in
22:39 66.6 °F 59.5 °F 29.9 in NE 6.4 mph 13.5 mph 78% 0 in
22:44 66.6 °F 59.4 °F 29.9 in NE 6.4 mph 14 mph 78% 0 in
22:49 66.6 °F 59.5 °F 29.9 in NE 6.2 mph 14 mph 78.1% 0 in
22:54 66.6 °F 59.7 °F 29.9 in NE 5.9 mph 10.2 mph 79% 0 in
22:59 66.4 °F 59.7 °F 29.9 in NE 5.7 mph 10.4 mph 79% 0 in
23:04 66.4 °F 59.9 °F 29.9 in NE 5.4 mph 13 mph 79.7% 0 in
23:09 66.4 °F 59.9 °F 29.9 in NE 6.2 mph 13.5 mph 80% 0 in
23:14 66.2 °F 59.7 °F 29.9 in NE 7.4 mph 13 mph 80% 0 in
23:19 66.2 °F 59.9 °F 29.9 in NE 7.2 mph 13 mph 80.2% 0 in
23:24 66.2 °F 60.3 °F 29.9 in NE 6.9 mph 13 mph 81% 0 in
23:29 66.4 °F 60.3 °F 29.9 in NE 6.9 mph 11.5 mph 81% 0 in
23:34 66.4 °F 60.4 °F 29.9 in NE 6.9 mph 12 mph 81% 0 in
23:39 66.6 °F 60.4 °F 29.9 in NE 6.6 mph 10.7 mph 80.8% 0 in
23:44 66.6 °F 60.4 °F 29.9 in NE 6.2 mph 11 mph 80.5% 0 in
23:49 66.6 °F 60.3 °F 29.9 in NNE 5.9 mph 10.4 mph 80.1% 0 in
23:54 66.6 °F 60.3 °F 29.9 in NE 5.4 mph 12.5 mph 80.4% 0 in
23:59 66.6 °F 60.4 °F 29.9 in NE 6 mph 15 mph 80.2% 0 in
Murcia-Puente Tocinos, España
Compliments of Weather Underground - 3 mb

La estación de MeteoMurcia.com, publica sus datos en los siguientes proyectos:

Weather Underground PWS IMURCIAP2 Meteoclimatic www.awekas.at

W3Counter
Web Analytics